Main page
METAR-TAF:

METAR-TAF

Airports :

Hakkari–Yüksekova Airport

Yüksekova, Turkey

latitude: 37-33-06N, longitude: 44-14-01E, elevation: 1950 m

Current weather observation

The report was made 1 hour and 39 minutes ago, at 12:50 UTC
Wind 9 kt from the East/Southeast
Temperature 5°C
Humidity 81%
Pressure 1015 hPa
Visibility 10 km or more
Scattered clouds at a height of 1200 ft
Broken clouds at a height of 3000 ft

METAR: LTCW 141250Z 11009KT 9999 SCT012 BKN030 05/02 Q1015

Time: 17:29 (14:29 UTC)

Forecast

The report was made 3 hours and 49 minutes ago, at 10:40 UTC
Forecast valid from 14 at 12 UTC to 14 at 21 UTC
Wind 9 kt from the East/Southeast
Visibility: 8000 m
Scattered clouds at a height of 3500 ft
Overcast at a height of 7000 ft
light rain showers

TAF: LTCW 141040Z 1412/1421 11009KT 8000 -SHRA SCT035 OVC070

Weather observations and forecasts of more than 4000 airports (METAR and TAF reports).

The available stations are represented by yellow and red dots on the map.

Hover mouse over dot to see the name of the station.

Then click to see weather observations and forecasts.

To change the map : click on the green buttons with a black cross to zoom in, on the green button with a dash to zoom out, or on the green arrows for adjacent maps.


METAR-TAF: